Time;durP1;ratioP1;P1;durP2;ratioP2;P2;SDS_P1;SDS_P2;PMS_P1;PMS_P2;Temp;Humidity;BMP_temperature;BMP_pressure;BME280_temperature;BME280_humidity;BME280_pressure;Samples;Min_cycle;Max_cycle;Signal;HPM_P1;HPM_P2
2021/09/30 00:00:27;;;;;;;42.70;25.90;;;;;;;13.47;87.13;98979.41;114191;1198;23544;-87
2021/09/30 00:03:09;;;;;;;37.80;25.10;;;;;;;13.47;86.95;98977.73;114248;1198;23234;-86
2021/09/30 00:05:37;;;;;;;41.00;26.00;;;;;;;13.45;86.91;98976.92;114335;1198;22581;-87
2021/09/30 00:08:06;;;;;;;46.20;28.70;;;;;;;13.40;87.07;98976.73;114291;1192;22435;-87
2021/09/30 00:10:33;;;;;;;40.50;27.00;;;;;;;13.39;87.37;98975.63;114209;1198;25098;-87
2021/09/30 00:13:20;;;;;;;43.00;27.90;;;;;;;13.40;87.41;98980.02;114153;1198;22442;-87
2021/09/30 00:18:29;;;;;;;38.10;27.10;;;;;;;13.45;87.51;98973.82;114122;1198;22441;-86
2021/09/30 01:20:05;;;;;;;40.70;27.60;;;;;;;13.75;87.38;98992.23;114180;1198;26256;-86
2021/09/30 01:57:38;;;;;;;44.40;27.70;;;;;;;13.82;87.75;99019.39;114199;1197;22412;-86
2021/09/30 02:35:03;;;;;;;47.20;31.10;;;;;;;13.89;88.16;99041.26;113756;1198;22424;-86
2021/09/30 02:59:33;;;;;;;41.10;27.70;;;;;;;13.93;87.86;99047.67;113974;1197;22422;-86
2021/09/30 03:02:00;;;;;;;43.60;29.60;;;;;;;13.93;87.86;99049.86;114309;1197;22437;-86
2021/09/30 03:04:28;;;;;;;44.40;29.00;;;;;;;13.92;87.78;99052.48;114238;1197;25093;-85
2021/09/30 03:06:59;;;;;;;40.00;27.40;;;;;;;13.92;87.70;99049.86;114168;1198;22548;-86
2021/09/30 03:09:44;;;;;;;41.50;28.50;;;;;;;13.92;87.66;99052.49;114123;1198;22444;-86
2021/09/30 03:12:27;;;;;;;43.80;29.60;;;;;;;13.94;88.17;99053.61;113999;1198;22445;-85
2021/09/30 03:15:17;;;;;;;41.80;28.70;;;;;;;13.97;88.12;99055.23;113934;1199;22448;-85
2021/09/30 03:21:59;;;;;;;39.00;26.70;;;;;;;13.98;88.04;99060.79;113904;1184;24176;-85
2021/09/30 03:23:35;;;;;;;39.10;27.30;;;;;;;14.00;87.92;99065.92;114038;1198;22808;-85
2021/09/30 03:26:03;;;;;;;40.30;28.80;;;;;;;14.02;88.00;99069.23;113990;1198;24165;-86
2021/09/30 03:28:31;;;;;;;40.50;28.30;;;;;;;14.04;88.12;99070.89;114189;1198;23801;-85
2021/09/30 03:31:00;;;;;;;41.60;27.80;;;;;;;14.03;88.09;99070.39;113727;1198;24111;-85
2021/09/30 03:33:27;;;;;;;39.30;26.50;;;;;;;14.04;88.10;99071.75;114290;1198;24132;-85
2021/09/30 03:36:07;;;;;;;36.50;26.40;;;;;;;14.05;88.05;99072.16;114028;1198;22424;-85
2021/09/30 03:38:34;;;;;;;40.10;27.30;;;;;;;14.06;88.19;99074.15;113932;1198;22440;-85
2021/09/30 03:41:01;;;;;;;37.80;27.30;;;;;;;14.08;88.11;99074.10;113895;1197;25086;-84
2021/09/30 03:43:30;;;;;;;;;;;;;;;14.07;88.06;99069.94;113953;1198;22464;-85
2021/09/30 03:45:56;;;;;;;36.00;25.40;;;;;;;14.07;87.90;99073.56;113986;1198;22488;-85
2021/09/30 03:48:26;;;;;;;37.00;26.20;;;;;;;14.07;87.84;99069.67;114288;1198;22417;-85
2021/09/30 03:53:38;;;;;;;39.70;28.40;;;;;;;14.06;88.05;99076.61;114260;1198;24032;-85
2021/09/30 04:01:22;;;;;;;39.20;25.80;;;;;;;14.13;88.14;99089.58;114341;1198;22433;-86
2021/09/30 04:04:04;;;;;;;42.10;30.40;;;;;;;14.15;88.16;99088.80;114021;1198;25095;-85
2021/09/30 04:06:31;;;;;;;41.20;28.20;;;;;;;14.16;88.18;99091.98;114487;1198;22463;-85
2021/09/30 04:08:58;;;;;;;37.40;27.60;;;;;;;14.17;87.98;99091.17;114272;1198;22549;-86
2021/09/30 04:11:24;;;;;;;37.40;26.30;;;;;;;14.17;88.05;99097.30;114079;1198;22456;-85
2021/09/30 04:13:51;;;;;;;39.10;25.80;;;;;;;14.18;87.81;99102.05;114391;1198;22449;-85
2021/09/30 04:16:18;;;;;;;42.10;29.20;;;;;;;14.15;87.67;99106.00;114315;1198;22735;-85
2021/09/30 04:18:44;;;;;;;40.20;29.60;;;;;;;14.11;87.48;99115.26;114074;1198;23455;-85
2021/09/30 04:21:11;;;;;;;38.40;26.30;;;;;;;14.04;87.64;99118.15;114117;1198;22485;-85
2021/09/30 04:23:37;;;;;;;37.90;27.50;;;;;;;14.01;88.04;99115.54;114372;1198;22440;-86
2021/09/30 04:26:04;;;;;;;39.00;26.00;;;;;;;14.01;88.12;99117.89;114330;1198;22458;-85
2021/09/30 04:28:32;;;;;;;40.40;27.70;;;;;;;14.05;88.64;99119.76;114111;1198;22498;-85
2021/09/30 04:30:58;;;;;;;39.90;28.40;;;;;;;14.10;88.62;99121.53;113964;1198;22443;-85
2021/09/30 04:33:43;;;;;;;39.10;27.50;;;;;;;14.13;88.50;99121.02;114301;1177;26234;-85
2021/09/30 04:36:09;;;;;;;37.20;26.20;;;;;;;14.13;88.33;99111.20;114201;1198;25180;-85
2021/09/30 04:38:36;;;;;;;40.00;26.30;;;;;;;14.13;88.30;99110.02;113852;1199;22425;-85
2021/09/30 04:41:03;;;;;;;46.80;29.80;;;;;;;14.14;88.29;99107.45;114138;1198;22447;-84
2021/09/30 04:43:29;;;;;;;46.20;30.30;;;;;;;14.15;88.30;99103.42;114108;1198;22798;-85
2021/09/30 04:45:55;;;;;;;43.50;28.90;;;;;;;14.14;88.30;99107.40;114142;1198;25117;-85
2021/09/30 04:48:21;;;;;;;41.70;27.50;;;;;;;14.13;88.21;99111.93;114422;1190;23117;-85
2021/09/30 04:50:53;;;;;;;42.20;28.10;;;;;;;14.13;88.52;99113.95;114336;1198;22438;-85
2021/09/30 04:53:20;;;;;;;42.30;28.80;;;;;;;14.15;88.41;99118.65;114415;1198;24050;-84
2021/09/30 04:55:47;;;;;;;47.60;30.70;;;;;;;14.17;88.69;99123.10;114449;1198;22969;-85
2021/09/30 04:58:13;;;;;;;43.40;29.20;;;;;;;14.18;88.42;99118.54;114094;1198;23318;-85
2021/09/30 05:00:39;;;;;;;43.60;28.60;;;;;;;14.20;88.34;99127.49;114173;1198;22498;-84
2021/09/30 05:03:17;;;;;;;43.60;31.10;;;;;;;14.20;88.45;99129.84;114031;1198;25164;-85
2021/09/30 05:05:44;;;;;;;46.50;31.70;;;;;;;14.23;88.28;99131.96;114519;1198;22858;-85
2021/09/30 05:08:11;;;;;;;50.70;33.10;;;;;;;14.23;88.50;99136.07;114317;1198;24027;-85
2021/09/30 05:10:56;;;;;;;47.20;31.40;;;;;;;14.25;88.59;99139.00;114152;1198;25258;-85
2021/09/30 05:13:35;;;;;;;47.10;31.10;;;;;;;14.25;88.53;99139.65;113827;1199;23046;-85
2021/09/30 05:16:02;;;;;;;51.70;30.50;;;;;;;14.26;88.56;99145.92;114103;1199;22420;-85
2021/09/30 05:18:55;;;;;;;54.10;32.60;;;;;;;14.28;88.61;99148.68;114421;1199;22437;-85
2021/09/30 05:21:24;;;;;;;52.70;33.30;;;;;;;14.30;88.46;99148.11;114374;1197;22546;-85
2021/09/30 05:23:51;;;;;;;53.10;32.50;;;;;;;14.27;88.33;99151.68;114393;1196;24028;-85
2021/09/30 05:26:33;;;;;;;45.70;28.30;;;;;;;14.23;88.32;99154.27;114279;1198;22546;-85
2021/09/30 05:29:03;;;;;;;53.40;29.70;;;;;;;14.20;88.34;99159.81;114832;1198;22425;-86
2021/09/30 05:31:30;;;;;;;48.30;31.80;;;;;;;14.18;88.62;99157.98;114079;1198;22806;-86
2021/09/30 05:34:29;;;;;;;55.40;35.60;;;;;;;14.20;88.96;99160.67;114207;1194;24062;-86
2021/09/30 05:37:10;;;;;;;48.50;32.00;;;;;;;14.22;89.00;99162.41;114184;1198;22455;-86
2021/09/30 05:39:37;;;;;;;48.20;30.50;;;;;;;14.25;88.89;99168.59;114924;1197;22429;-86
2021/09/30 05:42:03;;;;;;;51.40;30.70;;;;;;;14.29;88.93;99174.73;114332;1197;24165;-86
2021/09/30 05:44:32;;;;;;;49.90;32.20;;;;;;;14.33;88.88;99179.78;114189;1198;22442;-86
2021/09/30 05:46:59;;;;;;;53.80;33.80;;;;;;;14.37;88.84;99181.70;114429;1198;22450;-86
2021/09/30 05:49:25;;;;;;;54.10;32.60;;;;;;;14.40;88.92;99187.66;114289;1177;22420;-86
2021/09/30 05:52:07;;;;;;;49.60;30.90;;;;;;;14.44;88.69;99189.10;114521;1198;22429;-86
2021/09/30 05:54:47;;;;;;;49.30;30.70;;;;;;;14.45;88.37;99192.66;114511;1198;22925;-86
2021/09/30 05:57:21;;;;;;;54.60;34.50;;;;;;;14.47;88.48;99197.56;114100;1198;25095;-84
2021/09/30 06:00:13;;;;;;;59.50;34.90;;;;;;;14.48;88.44;99197.20;113931;1199;22427;-84
2021/09/30 06:14:06;;;;;;;58.60;35.30;;;;;;;14.59;88.26;99214.66;114223;1198;24057;-84
2021/09/30 06:16:36;;;;;;;60.60;35.40;;;;;;;14.58;88.30;99225.39;114557;1198;22485;-83
2021/09/30 06:19:07;;;;;;;63.40;33.60;;;;;;;14.58;88.32;99228.90;114671;1198;22559;-84
2021/09/30 06:21:36;;;;;;;54.50;33.30;;;;;;;14.56;88.16;99236.84;114119;1198;24026;-84
2021/09/30 06:24:04;;;;;;;59.50;36.20;;;;;;;14.55;88.09;99239.66;114351;1198;22424;-84
2021/09/30 06:26:31;;;;;;;59.50;36.70;;;;;;;14.56;88.46;99246.65;114255;1198;22791;-84
2021/09/30 06:29:09;;;;;;;56.00;34.50;;;;;;;14.57;88.47;99251.13;114264;1198;26244;-84
2021/09/30 06:31:36;;;;;;;58.60;35.20;;;;;;;14.59;88.47;99257.64;114712;1198;22427;-84
2021/09/30 06:34:21;;;;;;;54.90;33.80;;;;;;;14.59;88.47;99256.15;114361;1198;24136;-84
2021/09/30 06:36:58;;;;;;;54.80;33.90;;;;;;;14.56;88.11;99255.48;114231;1190;22452;-85
2021/09/30 06:39:25;;;;;;;58.60;36.00;;;;;;;14.51;88.05;99253.81;114301;1198;25228;-84
2021/09/30 06:41:51;;;;;;;54.10;33.80;;;;;;;14.45;88.11;99256.41;114641;1199;22419;-84
2021/09/30 06:44:37;;;;;;;50.40;32.70;;;;;;;14.36;87.81;99257.33;114277;1193;22485;-85
2021/09/30 06:47:38;;;;;;;49.30;27.70;;;;;;;14.24;87.98;99260.02;114167;1198;22797;-85
2021/09/30 06:50:15;;;;;;;50.10;27.40;;;;;;;14.06;87.17;99266.63;114595;1198;22459;-87
2021/09/30 06:53:01;;;;;;;41.80;25.90;;;;;;;13.85;87.29;99275.13;114335;1198;22422;-85
2021/09/30 06:55:46;;;;;;;39.30;25.00;;;;;;;13.66;87.06;99278.08;114740;1198;25094;-86
2021/09/30 06:58:40;;;;;;;38.90;25.30;;;;;;;13.49;87.36;99279.67;114175;1198;22568;-85
2021/09/30 07:01:25;;;;;;;38.50;23.80;;;;;;;13.38;87.58;99288.76;114622;1198;24186;-84
2021/09/30 07:04:10;;;;;;;30.20;20.50;;;;;;;13.34;87.57;99298.25;114284;1198;22707;-86
2021/09/30 07:06:51;;;;;;;34.40;21.20;;;;;;;13.24;86.72;99304.30;114196;1198;24077;-84
2021/09/30 07:09:18;;;;;;;29.60;20.50;;;;;;;13.14;86.49;99305.74;114385;1198;22469;-85
2021/09/30 07:11:44;;;;;;;31.90;19.00;;;;;;;13.08;86.82;99306.27;114094;1198;24008;-87
2021/09/30 07:14:11;;;;;;;32.30;20.10;;;;;;;13.03;86.74;99310.98;114127;1186;28289;-84
2021/09/30 07:16:37;;;;;;;28.20;18.40;;;;;;;12.94;86.51;99310.01;114351;1199;22462;-85
2021/09/30 07:19:05;;;;;;;28.90;18.20;;;;;;;12.85;86.36;99311.73;114001;1199;23254;-85
2021/09/30 07:21:33;;;;;;;33.00;18.50;;;;;;;12.77;86.38;99312.68;114911;1199;22467;-84
2021/09/30 07:24:00;;;;;;;27.80;17.70;;;;;;;12.66;86.53;99312.55;114747;1199;138515;-86
2021/09/30 07:26:27;;;;;;;24.80;16.80;;;;;;;12.62;86.56;99312.17;114271;1199;22453;-87
2021/09/30 07:28:53;;;;;;;25.10;16.50;;;;;;;12.57;85.98;99317.10;114272;1199;138135;-87
2021/09/30 07:31:20;;;;;;;22.80;14.20;;;;;;;12.51;86.13;99317.88;114759;1199;22464;-84
2021/09/30 07:33:46;;;;;;;18.30;13.40;;;;;;;12.47;86.24;99319.85;114384;1198;138623;-84
2021/09/30 07:36:13;;;;;;;18.10;13.80;;;;;;;12.45;85.64;99320.17;114739;1199;23256;-86
2021/09/30 07:38:41;;;;;;;21.80;10.90;;;;;;;12.44;84.87;99325.36;114806;1199;22432;-85
2021/09/30 07:41:07;;;;;;;15.40;9.90;;;;;;;12.42;84.04;99329.02;114481;1198;138833;-84
2021/09/30 07:43:35;;;;;;;14.90;10.00;;;;;;;12.40;84.19;99334.16;115103;1199;22972;-84
2021/09/30 07:46:01;;;;;;;11.70;8.70;;;;;;;12.35;82.80;99343.23;114786;1198;139671;-84
2021/09/30 07:48:28;;;;;;;15.60;10.50;;;;;;;12.33;83.54;99346.12;114993;1199;24167;-84
2021/09/30 07:50:54;;;;;;;16.60;9.90;;;;;;;12.32;84.04;99344.02;115300;1199;22951;-85
2021/09/30 07:53:21;;;;;;;14.10;10.10;;;;;;;12.35;84.48;99344.96;115184;1184;138391;-86
2021/09/30 07:55:47;;;;;;;16.30;11.30;;;;;;;12.38;85.12;99345.20;115191;1199;22509;-85
2021/09/30 07:58:13;;;;;;;17.40;11.10;;;;;;;12.38;85.06;99352.48;114846;1199;138214;-85
2021/09/30 08:00:41;;;;;;;19.20;11.20;;;;;;;12.36;84.97;99356.08;114574;1199;24232;-86
2021/09/30 08:03:09;;;;;;;16.40;12.00;;;;;;;12.38;85.58;99358.56;115092;1199;22505;-87
2021/09/30 08:05:36;;;;;;;15.50;9.50;;;;;;;12.38;85.27;99358.14;114801;1199;138637;-85
2021/09/30 08:08:07;;;;;;;16.00;9.40;;;;;;;12.35;84.84;99360.33;114653;1198;22578;-85
2021/09/30 08:10:35;;;;;;;16.00;8.70;;;;;;;12.33;84.26;99366.34;115082;1199;138818;-80
2021/09/30 08:13:02;;;;;;;16.10;8.50;;;;;;;12.35;84.06;99371.56;115260;1198;22444;-86
2021/09/30 08:15:30;;;;;;;10.90;7.20;;;;;;;12.33;82.25;99376.22;114658;1199;25142;-86
2021/09/30 08:17:57;;;;;;;14.60;9.30;;;;;;;12.29;82.92;99383.21;115693;1199;137658;-85
2021/09/30 08:20:24;;;;;;;14.70;8.90;;;;;;;12.29;83.80;99384.54;114763;1199;24100;-84
2021/09/30 08:22:52;;;;;;;10.70;7.70;;;;;;;12.35;83.88;99393.10;114698;1191;138999;-84
2021/09/30 08:25:19;;;;;;;11.50;7.50;;;;;;;12.41;83.32;99395.17;114988;1199;22564;-84
2021/09/30 08:27:46;;;;;;;9.40;6.80;;;;;;;12.45;83.35;99396.12;114466;1199;138118;-85
2021/09/30 08:30:12;;;;;;;10.70;7.30;;;;;;;12.47;82.61;99397.84;114889;1199;22153;-86
2021/09/30 08:32:39;;;;;;;9.00;6.10;;;;;;;12.50;82.53;99398.59;115622;1199;22512;-85
2021/09/30 08:35:06;;;;;;;10.40;6.90;;;;;;;12.51;82.36;99402.20;114477;1199;138469;-84
2021/09/30 08:37:33;;;;;;;11.60;7.30;;;;;;;12.52;82.80;99403.70;114622;1199;24153;-85
2021/09/30 08:40:00;;;;;;;12.50;8.10;;;;;;;12.53;83.30;99404.43;114484;1199;138419;-86
2021/09/30 08:42:27;;;;;;;13.20;8.80;;;;;;;12.57;83.48;99409.38;114978;1199;22451;-85
2021/09/30 08:44:54;;;;;;;15.20;9.20;;;;;;;12.64;84.04;99412.83;114660;1199;22451;-85
2021/09/30 08:47:21;;;;;;;15.10;8.80;;;;;;;12.74;84.11;99415.16;115001;1199;137903;-86
2021/09/30 08:49:47;;;;;;;14.90;9.70;;;;;;;12.85;84.41;99417.52;114641;1199;22918;-85
2021/09/30 08:52:14;;;;;;;14.70;9.80;;;;;;;12.98;84.50;99415.30;114423;1184;138474;-84
2021/09/30 08:54:40;;;;;;;15.00;10.10;;;;;;;13.07;83.28;99411.91;114354;1199;22486;-85
2021/09/30 08:57:07;;;;;;;12.60;8.70;;;;;;;13.09;82.36;99413.33;114481;1199;23530;-85
2021/09/30 08:59:34;;;;;;;13.70;9.60;;;;;;;13.10;81.91;99417.89;114201;1199;137567;-85
2021/09/30 09:02:19;;;;;;;14.00;9.70;;;;;;;13.15;82.28;99417.27;114894;1193;22536;-84
2021/09/30 09:04:58;;;;;;;13.50;8.40;;;;;;;13.24;82.50;99420.23;115032;1198;138665;-85
2021/09/30 09:07:30;;;;;;;13.00;9.30;;;;;;;13.34;82.53;99424.64;114441;1199;22494;-85
2021/09/30 09:09:59;;;;;;;13.00;8.00;;;;;;;13.43;82.45;99429.39;114644;1199;137712;-85
2021/09/30 09:12:27;;;;;;;;;;;;;;;13.49;81.96;99435.48;114353;1200;24070;-84
2021/09/30 09:14:53;;;;;;;11.80;7.80;;;;;;;13.49;81.00;99440.52;114566;1199;22562;-85
2021/09/30 09:17:20;;;;;;;11.20;6.60;;;;;;;13.47;80.06;99441.79;114098;1199;137863;-84
2021/09/30 09:19:56;;;;;;;10.00;6.10;;;;;;;13.41;79.29;99437.27;114615;1199;24065;-83
2021/09/30 09:22:30;;;;;;;11.00;6.70;;;;;;;13.38;79.55;99441.63;115610;1199;138441;-84
2021/09/30 09:25:07;;;;;;;10.20;6.70;;;;;;;13.39;79.82;99443.25;115095;1199;23214;-83
2021/09/30 09:27:55;;;;;;;11.10;6.40;;;;;;;13.40;79.81;99443.98;114575;1199;22915;-84
2021/09/30 09:30:28;;;;;;;11.30;6.30;;;;;;;13.41;79.44;99443.67;115339;1193;138068;-83
2021/09/30 09:33:00;;;;;;;13.10;6.70;;;;;;;13.44;79.50;99446.98;114634;1199;23834;-83
2021/09/30 09:35:27;;;;;;;11.50;6.90;;;;;;;13.48;79.67;99449.59;114549;1193;138644;-83
2021/09/30 09:38:01;;;;;;;11.10;6.90;;;;;;;13.55;79.60;99454.86;115427;1197;22474;-83
2021/09/30 09:40:35;;;;;;;14.90;6.90;;;;;;;13.58;79.42;99456.65;114584;1199;138433;-83
2021/09/30 09:43:39;;;;;;;10.80;7.50;;;;;;;13.61;79.37;99456.89;114818;1199;22438;-83
2021/09/30 09:46:08;;;;;;;10.00;6.30;;;;;;;13.66;79.40;99464.16;114757;1199;138147;-83
2021/09/30 09:48:36;;;;;;;11.40;6.30;;;;;;;13.68;79.54;99465.46;115230;1199;22547;-83
2021/09/30 09:51:11;;;;;;;7.50;5.20;;;;;;;13.70;78.76;99463.30;114940;1199;24806;-83
2021/09/30 09:53:39;;;;;;;10.20;5.50;;;;;;;13.68;78.00;99463.54;115231;1198;138226;-82
2021/09/30 09:56:11;;;;;;;11.60;4.70;;;;;;;13.64;77.33;99468.72;114446;1198;25232;-83
2021/09/30 09:58:49;;;;;;;15.20;5.40;;;;;;;13.60;77.03;99475.61;114286;1199;137951;-83
2021/09/30 10:01:20;;;;;;;8.80;4.60;;;;;;;13.57;76.58;99474.06;114879;1199;22596;-82
2021/09/30 10:03:52;;;;;;;10.70;4.80;;;;;;;13.51;75.92;99475.90;115142;1198;22503;-83
2021/09/30 10:06:19;;;;;;;15.60;5.10;;;;;;;13.48;75.48;99475.62;114641;1199;137439;-82
2021/09/30 10:08:45;;;;;;;12.60;4.30;;;;;;;13.44;75.25;99476.84;115075;1199;23075;-82
2021/09/30 10:11:13;;;;;;;8.50;3.80;;;;;;;13.41;74.49;99479.24;115390;1199;138472;-81
2021/09/30 10:13:40;;;;;;;8.20;4.40;;;;;;;13.38;75.08;99478.36;114438;1199;22787;-82
2021/09/30 10:16:07;;;;;;;12.50;4.70;;;;;;;13.40;75.60;99482.69;114507;1199;137584;-81
2021/09/30 10:18:33;;;;;;;7.80;5.20;;;;;;;13.43;75.74;99485.64;114904;1199;22429;-82
2021/09/30 10:21:00;;;;;;;10.40;4.90;;;;;;;13.45;75.67;99484.16;114542;1198;22443;-82
2021/09/30 10:23:29;;;;;;;15.90;6.30;;;;;;;13.46;76.21;99488.95;114054;1199;138615;-82
2021/09/30 10:26:06;;;;;;;14.60;5.80;;;;;;;13.48;75.69;99488.33;114900;1199;22445;-82
2021/09/30 10:28:40;;;;;;;15.70;6.00;;;;;;;13.49;76.30;99490.15;114668;1199;138688;-82
2021/09/30 10:31:31;;;;;;;14.40;7.20;;;;;;;13.51;76.74;99490.69;115193;1199;22457;-82
2021/09/30 10:34:04;;;;;;;11.10;6.80;;;;;;;13.52;76.10;99488.55;114586;1199;137611;-82
2021/09/30 10:36:46;;;;;;;30.00;8.70;;;;;;;13.49;76.21;99483.64;114689;1199;25104;-82
2021/09/30 10:39:30;;;;;;;13.10;6.50;;;;;;;13.50;76.09;99481.70;114538;1199;24027;-81
2021/09/30 10:42:00;;;;;;;17.20;7.20;;;;;;;13.52;75.81;99478.38;114748;1199;138084;-82
2021/09/30 10:44:36;;;;;;;14.20;7.80;;;;;;;13.56;76.17;99479.25;114470;1199;22945;-82
2021/09/30 10:47:08;;;;;;;15.30;7.80;;;;;;;13.59;75.87;99480.20;114788;1199;137553;-82
2021/09/30 10:49:42;;;;;;;15.60;7.50;;;;;;;13.61;76.09;99479.58;114526;1193;25013;-82
2021/09/30 10:52:31;;;;;;;12.50;7.10;;;;;;;13.63;76.43;99479.46;114793;1199;138230;-82
2021/09/30 10:55:01;;;;;;;;;;;;;;;13.64;75.74;99484.54;115024;1199;22542;-82
2021/09/30 10:57:37;;;;;;;21.50;8.00;;;;;;;13.62;75.45;99489.80;114590;1199;22520;-82
2021/09/30 11:00:30;;;;;;;16.00;7.30;;;;;;;13.58;75.14;99487.06;114780;1199;137741;-83
2021/09/30 11:03:02;;;;;;;15.80;8.20;;;;;;;13.51;75.22;99487.06;114428;1199;22860;-82
2021/09/30 11:05:33;;;;;;;12.20;6.80;;;;;;;13.49;75.61;99484.95;114287;1199;137473;-82
2021/09/30 11:08:19;;;;;;;17.90;7.70;;;;;;;13.48;75.91;99486.30;114659;1197;22503;-82
2021/09/30 11:11:08;;;;;;;10.60;6.10;;;;;;;13.45;75.44;99487.79;114641;1199;138827;-82
2021/09/30 11:13:44;;;;;;;13.60;6.90;;;;;;;13.41;75.11;99488.71;114819;1199;22423;-82
2021/09/30 11:16:14;;;;;;;18.50;6.80;;;;;;;13.38;75.63;99486.04;114294;1198;138592;-82
2021/09/30 11:18:59;;;;;;;15.60;7.40;;;;;;;13.38;76.16;99485.23;114719;1192;22897;-82
2021/09/30 11:21:32;;;;;;;12.20;6.70;;;;;;;13.35;76.20;99486.89;115404;1199;22400;-83
2021/09/30 11:24:04;;;;;;;11.20;7.30;;;;;;;13.34;76.34;99488.88;114352;1197;138732;-76
2021/09/30 11:26:54;;;;;;;13.20;7.00;;;;;;;13.35;77.03;99490.96;114758;1197;23306;-76
2021/09/30 11:29:36;;;;;;;12.10;7.00;;;;;;;13.41;77.14;99489.16;114349;1198;137971;-76
2021/09/30 11:32:02;;;;;;;14.90;8.10;;;;;;;13.46;77.75;99494.26;114338;1199;22404;-76
2021/09/30 11:34:31;;;;;;;10.00;7.00;;;;;;;13.54;77.56;99493.48;114611;1199;138189;-84
2021/09/30 11:37:24;;;;;;;12.80;7.30;;;;;;;13.57;76.98;99491.16;114926;1199;23911;-84
2021/09/30 11:39:54;;;;;;;13.60;6.90;;;;;;;13.56;76.87;99492.44;114839;1199;22554;-85
2021/09/30 11:42:33;;;;;;;14.60;7.90;;;;;;;13.55;76.91;99493.89;114722;1193;138589;-85
2021/09/30 11:45:06;;;;;;;12.30;8.10;;;;;;;13.52;77.07;99494.99;114698;1199;22489;-85
2021/09/30 11:47:32;;;;;;;14.20;7.40;;;;;;;13.50;77.32;99497.35;114647;1198;137648;-85
2021/09/30 11:50:02;;;;;;;13.20;6.90;;;;;;;13.47;77.46;99501.95;114819;1198;22444;-86
2021/09/30 11:52:30;;;;;;;12.20;7.50;;;;;;;13.45;77.66;99506.98;115872;1199;138513;-86
2021/09/30 11:55:13;;;;;;;14.40;7.50;;;;;;;13.43;77.46;99506.88;114756;1197;22559;-86
2021/09/30 11:57:52;;;;;;;12.30;7.00;;;;;;;13.34;77.08;99510.34;115522;1199;22429;-86
2021/09/30 12:00:18;;;;;;;14.00;6.70;;;;;;;13.27;77.44;99509.92;114601;1198;139518;-85
2021/09/30 12:03:02;;;;;;;11.90;6.70;;;;;;;13.22;77.15;99511.11;114330;1199;22464;-86
2021/09/30 12:05:31;;;;;;;12.60;6.80;;;;;;;13.16;77.34;99512.11;115218;1198;138237;-87
2021/09/30 12:07:59;;;;;;;12.40;7.40;;;;;;;13.15;77.96;99515.10;114474;1199;22456;-86
2021/09/30 12:10:27;;;;;;;11.60;7.30;;;;;;;13.15;78.39;99518.71;115023;1197;138618;-85
2021/09/30 12:12:53;;;;;;;15.20;7.30;;;;;;;13.15;78.00;99515.75;114751;1199;23103;-85
2021/09/30 12:15:34;;;;;;;15.90;8.60;;;;;;;13.13;78.05;99515.42;114899;1198;22560;-85
2021/09/30 12:18:04;;;;;;;14.10;8.60;;;;;;;13.08;77.94;99514.79;114489;1197;137917;-86
2021/09/30 12:20:30;;;;;;;;;;;;;;;13.09;78.48;99516.20;114563;1198;25118;-86
2021/09/30 12:23:01;;;;;;;13.10;7.90;;;;;;;13.12;78.67;99517.59;114755;1198;125018;-87
2021/09/30 12:25:28;;;;;;;10.80;7.60;;;;;;;13.12;78.41;99514.82;115112;1198;22478;-85
2021/09/30 12:27:57;;;;;;;13.00;8.50;;;;;;;13.12;78.68;99511.91;114154;1199;22422;-85
2021/09/30 12:30:26;;;;;;;16.00;9.10;;;;;;;13.15;78.83;99518.27;114562;1199;138074;-84
2021/09/30 12:33:08;;;;;;;13.20;8.30;;;;;;;13.15;78.85;99517.55;115122;1197;22667;-85
2021/09/30 12:35:41;;;;;;;15.10;8.80;;;;;;;13.14;78.54;99515.71;114358;1199;138723;-85
2021/09/30 12:38:14;;;;;;;15.00;8.80;;;;;;;13.14;78.57;99512.50;114330;1199;22456;-84
2021/09/30 12:40:43;;;;;;;15.30;9.40;;;;;;;13.17;79.00;99506.99;114373;1198;138072;-84
2021/09/30 12:43:11;;;;;;;15.50;8.30;;;;;;;13.18;78.91;99507.88;114635;1199;25202;-85
2021/09/30 12:45:45;;;;;;;13.90;8.60;;;;;;;13.15;78.50;99509.29;114626;1199;22438;-85
2021/09/30 12:48:33;;;;;;;13.10;8.60;;;;;;;13.12;78.58;99508.29;114457;1199;137974;-85
2021/09/30 12:51:04;;;;;;;14.40;9.50;;;;;;;13.10;78.57;99514.75;114321;1193;22804;-85
2021/09/30 12:53:40;;;;;;;13.90;9.30;;;;;;;13.09;78.47;99517.05;113740;1199;138222;-85
2021/09/30 12:56:08;;;;;;;16.10;10.20;;;;;;;13.09;78.39;99517.30;114869;1199;22897;-85
2021/09/30 12:58:39;;;;;;;19.30;10.00;;;;;;;13.08;78.29;99516.14;115311;1198;137859;-85
2021/09/30 13:01:27;;;;;;;13.50;8.70;;;;;;;13.06;78.14;99511.33;114458;1197;22429;-85
2021/09/30 13:04:13;;;;;;;12.50;8.10;;;;;;;13.03;78.16;99510.59;114304;1200;137812;-81
2021/09/30 13:06:53;;;;;;;12.30;7.60;;;;;;;13.01;77.77;99514.20;114097;1192;22483;-81
2021/09/30 13:09:22;;;;;;;11.60;7.80;;;;;;;12.96;77.57;99513.81;113784;1199;22582;-84
2021/09/30 13:11:58;;;;;;;14.40;8.50;;;;;;;12.92;77.71;99508.18;113760;1199;144773;-84
2021/09/30 13:14:33;;;;;;;13.40;8.00;;;;;;;12.88;77.67;99504.25;114171;1199;22453;-84
2021/09/30 13:17:17;;;;;;;16.90;9.00;;;;;;;12.86;77.85;99504.41;113975;1198;138158;-84
2021/09/30 13:19:51;;;;;;;12.70;8.90;;;;;;;12.86;78.43;99504.46;114425;1199;25014;-84
2021/09/30 13:22:34;;;;;;;12.00;8.70;;;;;;;12.87;78.57;99505.82;115124;1198;138296;-83
2021/09/30 13:25:10;;;;;;;16.00;8.70;;;;;;;12.90;78.62;99506.74;114607;1199;22517;-84
2021/09/30 13:27:52;;;;;;;14.60;8.70;;;;;;;12.91;78.47;99509.41;114429;1199;22458;-84
2021/09/30 13:30:22;;;;;;;17.60;9.00;;;;;;;12.91;78.52;99511.18;115018;1199;137533;-83
2021/09/30 13:33:04;;;;;;;13.50;8.00;;;;;;;12.92;78.64;99510.64;114195;1198;22562;-83
2021/09/30 13:35:34;;;;;;;16.40;8.50;;;;;;;12.91;78.57;99513.41;114610;1199;138627;-83
2021/09/30 13:38:01;;;;;;;18.20;8.20;;;;;;;12.90;78.64;99512.00;114440;1199;22452;-83
2021/09/30 13:40:28;;;;;;;14.90;8.00;;;;;;;12.92;78.98;99511.55;114244;1199;138808;-83
2021/09/30 13:42:54;;;;;;;13.30;7.80;;;;;;;12.93;79.04;99509.56;114755;1199;22487;-83
2021/09/30 13:45:22;;;;;;;12.80;7.60;;;;;;;12.95;79.01;99512.73;114910;1199;22460;-83
2021/09/30 13:47:49;;;;;;;14.70;7.70;;;;;;;12.96;79.44;99512.60;114604;1199;137468;-83
2021/09/30 13:50:19;;;;;;;13.10;7.90;;;;;;;12.97;79.33;99511.41;114399;1193;22453;-83
2021/09/30 13:52:50;;;;;;;11.30;6.80;;;;;;;12.99;79.31;99507.33;114104;1198;138367;-83
2021/09/30 13:55:19;;;;;;;15.70;7.50;;;;;;;13.02;79.29;99505.69;115030;1199;23172;-83
2021/09/30 13:57:45;;;;;;;13.90;8.00;;;;;;;13.03;79.00;99508.69;114560;1199;22375;-83
2021/09/30 14:00:14;;;;;;;16.10;7.90;;;;;;;13.05;79.11;99506.71;114943;1199;138416;-83
2021/09/30 14:02:44;;;;;;;13.70;8.10;;;;;;;13.08;79.28;99507.71;114283;1199;25124;-83
2021/09/30 14:05:12;;;;;;;13.40;8.20;;;;;;;13.09;78.98;99509.09;114316;1192;138441;-82
2021/09/30 14:07:41;;;;;;;11.80;7.30;;;;;;;13.08;78.67;99510.38;115503;1198;24065;-83
2021/09/30 14:10:10;;;;;;;11.70;7.30;;;;;;;13.08;78.65;99503.94;115113;1199;25188;-83
2021/09/30 14:12:37;;;;;;;15.20;7.50;;;;;;;13.11;78.80;99502.36;115650;1183;137899;-83
2021/09/30 14:15:06;;;;;;;11.70;7.20;;;;;;;13.12;78.64;99502.49;114870;1193;22388;-83
2021/09/30 14:17:33;;;;;;;12.70;8.50;;;;;;;13.15;78.96;99496.39;115377;1197;137570;-83
2021/09/30 14:19:59;;;;;;;16.10;7.90;;;;;;;13.17;78.79;99498.78;114781;1194;22277;-82
2021/09/30 14:22:26;;;;;;;12.30;7.80;;;;;;;13.19;78.74;99492.27;115162;1197;138390;-82
2021/09/30 14:24:53;;;;;;;15.50;9.30;;;;;;;13.22;78.82;99491.45;115622;1199;24049;-83
2021/09/30 14:27:21;;;;;;;15.00;9.30;;;;;;;13.25;78.56;99484.42;113696;1199;137725;-82
2021/09/30 14:29:48;;;;;;;16.30;9.60;;;;;;;13.25;78.02;99485.35;114309;1198;24087;-82